createdAt,value
2019-04-11T00:00:51.996Z,0.00
2019-04-11T00:01:53.026Z,0.00
2019-04-11T00:02:51.136Z,0.00
2019-04-11T00:03:51.444Z,0.00
2019-04-11T00:04:50.715Z,0.00
2019-04-11T00:05:50.836Z,0.00
2019-04-11T00:06:51.903Z,0.00
2019-04-11T00:07:50.689Z,0.00
2019-04-11T00:08:50.701Z,0.00
2019-04-11T00:09:51.229Z,0.00
2019-04-11T00:10:50.665Z,0.00
2019-04-11T00:11:50.636Z,0.00
2019-04-11T00:12:50.636Z,0.00
2019-04-11T00:13:51.547Z,0.00
2019-04-11T00:14:51.771Z,0.00
2019-04-11T00:15:50.899Z,0.00
2019-04-11T00:16:50.590Z,0.00
2019-04-11T00:17:50.576Z,0.00
2019-04-11T00:18:51.394Z,0.00
2019-04-11T00:19:51.573Z,0.00
2019-04-11T00:20:50.674Z,0.00
2019-04-11T00:21:50.528Z,0.00
2019-04-11T00:22:51.532Z,0.00
2019-04-11T00:23:50.525Z,0.00
2019-04-11T00:24:51.267Z,0.00
2019-04-11T00:25:51.454Z,0.00
2019-04-11T00:26:50.699Z,0.00
2019-04-11T00:27:51.008Z,0.00
2019-04-11T00:28:50.454Z,0.00
2019-04-11T00:29:51.435Z,0.00
2019-04-11T00:30:50.554Z,0.00
2019-04-11T00:31:50.434Z,0.00
2019-04-11T00:32:50.438Z,0.00
2019-04-11T00:33:50.829Z,0.00
2019-04-11T00:34:51.163Z,0.00
2019-04-11T00:35:50.420Z,0.00
2019-04-11T00:36:50.553Z,0.00
2019-04-11T00:37:51.400Z,0.00
2019-04-11T00:38:50.371Z,0.00
2019-04-11T00:39:50.355Z,0.00
2019-04-11T00:40:51.246Z,0.00
2019-04-11T00:41:50.340Z,0.00
2019-04-11T00:42:50.544Z,0.00
2019-04-11T00:43:50.519Z,0.00
2019-04-11T00:44:51.384Z,0.00
2019-04-11T00:45:50.305Z,0.00
2019-04-11T00:46:50.919Z,0.00
2019-04-11T00:47:50.254Z,0.00
2019-04-11T00:48:51.508Z,0.00
2019-04-11T00:49:50.505Z,0.00
2019-04-11T00:50:50.236Z,0.00
2019-04-11T00:51:50.231Z,0.00
2019-04-11T00:52:50.247Z,0.00
2019-04-11T00:53:50.214Z,0.00
2019-04-11T00:54:51.139Z,0.00
2019-04-11T00:55:50.180Z,0.00
2019-04-11T00:56:50.613Z,0.00
2019-04-11T00:57:50.165Z,0.00
2019-04-11T00:58:50.175Z,0.00
2019-04-11T00:59:50.915Z,0.00
2019-04-11T01:00:51.064Z,0.00
2019-04-11T01:01:51.441Z,0.00
2019-04-11T01:02:50.112Z,0.00
2019-04-11T01:03:50.089Z,0.00
2019-04-11T01:04:50.862Z,0.00
2019-04-11T01:05:50.068Z,0.00
2019-04-11T01:06:50.205Z,0.00
2019-04-11T01:07:51.067Z,0.00
2019-04-11T01:08:50.036Z,0.00
2019-04-11T01:09:50.683Z,0.00
2019-04-11T01:10:50.028Z,0.00
2019-04-11T01:11:50.112Z,0.00
2019-04-11T01:12:51.205Z,0.00
2019-04-11T01:13:53.508Z,0.00
2019-04-11T01:14:51.271Z,0.00
2019-04-11T01:15:49.971Z,0.00
2019-04-11T01:16:50.673Z,0.00
2019-04-11T01:17:49.951Z,0.00
2019-04-11T01:18:50.021Z,0.00
2019-04-11T01:19:51.069Z,0.00
2019-04-11T01:20:49.930Z,0.00
2019-04-11T01:21:50.930Z,0.00
2019-04-11T01:22:50.799Z,0.00
2019-04-11T01:23:49.885Z,0.00
2019-04-11T01:24:50.271Z,0.00
2019-04-11T01:25:49.860Z,0.00
2019-04-11T01:26:49.860Z,0.00
2019-04-11T01:27:50.046Z,0.00
2019-04-11T01:28:49.820Z,0.00
2019-04-11T01:29:49.811Z,0.00
2019-04-11T01:30:49.804Z,0.00
2019-04-11T01:31:49.838Z,0.00
2019-04-11T01:32:50.650Z,0.00
2019-04-11T01:33:49.782Z,0.00
2019-04-11T01:34:50.860Z,0.00
2019-04-11T01:35:49.947Z,0.00
2019-04-11T01:36:49.742Z,0.00
2019-04-11T01:37:50.242Z,0.00
2019-04-11T01:38:49.723Z,0.00
2019-04-11T01:39:49.743Z,0.00
2019-04-11T01:40:49.852Z,0.00
2019-04-11T01:41:49.679Z,0.00
2019-04-11T01:42:49.680Z,0.00
2019-04-11T01:43:57.307Z,0.00
2019-04-11T01:44:50.658Z,0.00
2019-04-11T01:45:49.727Z,0.00
2019-04-11T01:46:50.628Z,0.00
2019-04-11T01:47:49.681Z,0.00
2019-04-11T01:48:50.073Z,0.00
2019-04-11T01:49:49.614Z,0.00
2019-04-11T01:50:50.768Z,0.00
2019-04-11T01:51:49.813Z,0.00
2019-04-11T01:52:50.750Z,0.00
2019-04-11T01:53:49.557Z,0.00
2019-04-11T01:54:50.068Z,0.00
2019-04-11T01:55:50.470Z,0.00
2019-04-11T01:56:49.581Z,0.00
2019-04-11T01:57:49.884Z,0.00
2019-04-11T01:58:49.505Z,0.00
2019-04-11T01:59:49.516Z,0.00
2019-04-11T02:00:50.830Z,0.00
2019-04-11T02:01:49.496Z,0.00
2019-04-11T02:02:50.518Z,0.00
2019-04-11T02:03:49.770Z,0.00
2019-04-11T02:04:49.443Z,0.00
2019-04-11T02:05:49.552Z,0.00
2019-04-11T02:06:49.967Z,0.00
2019-04-11T02:07:49.423Z,0.00
2019-04-11T02:08:49.407Z,0.00
2019-04-11T02:09:50.428Z,0.00
2019-04-11T02:10:49.368Z,0.00
2019-04-11T02:11:49.963Z,0.00
2019-04-11T02:12:49.376Z,0.00
2019-04-11T02:13:50.339Z,0.00
2019-04-11T02:14:50.121Z,0.00
2019-04-11T02:15:49.445Z,0.00
2019-04-11T02:16:50.641Z,0.00
2019-04-11T02:17:49.299Z,0.00
2019-04-11T02:18:49.856Z,0.00
2019-04-11T02:19:50.274Z,0.00
2019-04-11T02:20:49.340Z,0.00
2019-04-11T02:21:49.648Z,0.00
2019-04-11T02:22:49.256Z,0.00
2019-04-11T02:23:49.237Z,0.00
2019-04-11T02:24:50.158Z,0.00
2019-04-11T02:25:49.222Z,0.00
2019-04-11T02:26:50.314Z,0.00
2019-04-11T02:27:50.295Z,0.00
2019-04-11T02:28:49.189Z,0.00
2019-04-11T02:29:49.193Z,0.00
2019-04-11T02:30:51.019Z,0.00
2019-04-11T02:31:50.637Z,0.00
2019-04-11T02:32:50.902Z,0.00
2019-04-11T02:33:50.832Z,0.00
2019-04-11T02:34:50.684Z,0.00
2019-04-11T02:35:49.547Z,0.00
2019-04-11T02:36:49.195Z,0.00
2019-04-11T02:37:51.758Z,0.00
2019-04-11T02:38:54.019Z,0.00
2019-04-11T02:39:51.591Z,0.00
2019-04-11T02:40:49.963Z,0.00
2019-04-11T02:41:50.628Z,0.00
2019-04-11T02:42:49.811Z,0.00
2019-04-11T02:43:50.993Z,0.00
2019-04-11T02:45:06.384Z,0.00
2019-04-11T02:45:58.107Z,0.00
2019-04-11T02:46:58.112Z,0.00
2019-04-11T02:47:51.731Z,0.00
2019-04-11T02:48:49.808Z,0.00
2019-04-11T02:49:49.588Z,0.00
2019-04-11T02:50:50.356Z,0.00
2019-04-11T02:51:49.524Z,0.00
2019-04-11T02:52:49.720Z,0.00
2019-04-11T02:53:49.558Z,0.00
2019-04-11T02:54:49.359Z,0.00
2019-04-11T02:55:49.711Z,0.00
2019-04-11T02:56:51.048Z,0.00
2019-04-11T02:57:50.173Z,0.00
2019-04-11T02:58:50.206Z,0.00
2019-04-11T02:59:49.186Z,0.00
2019-04-11T03:00:50.385Z,0.00
2019-04-11T03:01:50.748Z,0.00
2019-04-11T03:02:50.863Z,0.00
2019-04-11T03:03:49.836Z,0.00
2019-04-11T03:04:48.804Z,0.00
2019-04-11T03:05:48.791Z,0.00
2019-04-11T03:06:49.804Z,0.00
2019-04-11T03:07:49.830Z,0.00
2019-04-11T03:08:49.076Z,0.00
2019-04-11T03:09:49.119Z,0.00
2019-04-11T03:10:49.208Z,0.00
2019-04-11T03:11:49.369Z,0.00
2019-04-11T03:12:48.711Z,0.00
2019-04-11T03:13:50.334Z,0.00
2019-04-11T03:15:05.316Z,0.00
2019-04-11T03:16:05.644Z,0.00
2019-04-11T03:16:59.996Z,0.00
2019-04-11T03:17:54.892Z,0.00
2019-04-11T03:19:08.655Z,0.00
2019-04-11T03:20:02.724Z,0.00
2019-04-11T03:20:56.768Z,0.00
2019-04-11T03:21:50.156Z,0.00
2019-04-11T03:22:56.542Z,0.00
2019-04-11T03:23:51.261Z,0.00
2019-04-11T03:24:49.153Z,0.00
2019-04-11T03:25:49.213Z,0.00
2019-04-11T03:26:49.718Z,0.00
2019-04-11T03:27:49.467Z,0.00
2019-04-11T03:28:50.268Z,0.00
2019-04-11T03:29:51.512Z,0.00
2019-04-11T03:31:18.002Z,0.00
2019-04-11T03:32:33.571Z,0.00
2019-04-11T03:33:43.662Z,0.00
2019-04-11T03:35:38.543Z,0.00
2019-04-11T03:37:18.985Z,0.00
2019-04-11T03:38:14.683Z,0.00
2019-04-11T03:39:11.642Z,0.00
2019-04-11T03:40:06.075Z,0.00
2019-04-11T03:41:05.608Z,0.00
2019-04-11T03:42:05.873Z,0.00
2019-04-11T03:43:01.263Z,0.00
2019-04-11T03:43:59.194Z,0.00
2019-04-11T03:45:11.293Z,0.00
2019-04-11T03:46:11.938Z,0.00
2019-04-11T03:47:10.117Z,0.00
2019-04-11T03:48:08.979Z,0.00
2019-04-11T03:49:00.112Z,0.00
2019-04-11T03:49:53.163Z,0.00
2019-04-11T03:50:52.484Z,0.00
2019-04-11T03:51:48.330Z,0.00
2019-04-11T03:52:49.543Z,0.00
2019-04-11T03:53:49.034Z,0.00
2019-04-11T03:54:49.548Z,0.00
2019-04-11T03:55:49.423Z,0.00
2019-04-11T03:56:49.223Z,0.00
2019-04-11T03:57:49.186Z,0.00
2019-04-11T03:58:50.255Z,0.00
2019-04-11T03:59:48.488Z,0.00
2019-04-11T04:00:50.784Z,0.00
2019-04-11T04:01:48.687Z,0.00
2019-04-11T04:02:48.875Z,0.00
2019-04-11T04:03:49.127Z,4.00
2019-04-11T04:04:49.385Z,4.00
2019-04-11T04:05:48.643Z,0.00
2019-04-11T04:06:49.803Z,4.00
2019-04-11T04:07:48.899Z,4.00
2019-04-11T04:08:48.748Z,4.00
2019-04-11T04:09:49.029Z,4.00
2019-04-11T04:10:48.109Z,8.00
2019-04-11T04:11:49.346Z,8.00
2019-04-11T04:12:48.172Z,8.00
2019-04-11T04:13:49.720Z,12.00
2019-04-11T04:14:49.527Z,12.00
2019-04-11T04:15:59.983Z,12.00
2019-04-11T04:16:51.035Z,16.00
2019-04-11T04:17:49.628Z,20.00
2019-04-11T04:18:48.391Z,24.00
2019-04-11T04:19:49.760Z,20.00
2019-04-11T04:20:48.916Z,28.00
2019-04-11T04:21:49.047Z,28.00
2019-04-11T04:22:49.758Z,32.00
2019-04-11T04:23:49.711Z,32.00
2019-04-11T04:24:49.773Z,36.00
2019-04-11T04:25:49.252Z,44.00
2019-04-11T04:26:48.479Z,48.00
2019-04-11T04:27:49.129Z,52.00
2019-04-11T04:28:48.234Z,60.00
2019-04-11T04:29:51.840Z,68.00
2019-04-11T04:30:49.371Z,72.00
2019-04-11T04:31:48.982Z,80.00
2019-04-11T04:32:49.308Z,84.00
2019-04-11T04:33:48.156Z,92.00
2019-04-11T04:34:49.088Z,104.00
2019-04-11T04:35:49.467Z,112.00
2019-04-11T04:36:49.589Z,120.00
2019-04-11T04:37:49.589Z,128.00
2019-04-11T04:38:48.895Z,136.00
2019-04-11T04:39:48.055Z,144.00
2019-04-11T04:41:00.256Z,152.00
2019-04-11T04:41:58.251Z,168.00
2019-04-11T04:42:50.995Z,176.00
2019-04-11T04:43:50.476Z,192.00
2019-04-11T04:44:49.028Z,200.00
2019-04-11T04:46:07.467Z,212.00
2019-04-11T04:47:00.279Z,224.00
2019-04-11T04:47:54.856Z,232.00
2019-04-11T04:48:49.981Z,244.00
2019-04-11T04:49:48.193Z,256.00
2019-04-11T04:50:48.925Z,268.00
2019-04-11T04:51:47.950Z,276.00
2019-04-11T04:52:48.973Z,292.00
2019-04-11T04:53:48.135Z,304.00
2019-04-11T04:54:48.476Z,312.00
2019-04-11T04:55:48.026Z,328.00
2019-04-11T04:56:47.612Z,344.00
2019-04-11T04:57:48.706Z,352.00
2019-04-11T04:58:48.579Z,364.00
2019-04-11T04:59:48.963Z,376.00
2019-04-11T05:00:48.405Z,392.00
2019-04-11T05:01:48.250Z,400.00
2019-04-11T05:02:47.988Z,412.00
2019-04-11T05:03:48.791Z,424.00
2019-04-11T05:04:47.915Z,432.00
2019-04-11T05:05:48.479Z,448.00
2019-04-11T05:06:48.981Z,456.00
2019-04-11T05:07:47.611Z,468.00
2019-04-11T05:08:47.471Z,480.00
2019-04-11T05:09:48.061Z,492.00
2019-04-11T05:10:49.047Z,500.00
2019-04-11T05:11:48.747Z,516.00
2019-04-11T05:12:47.482Z,524.00
2019-04-11T05:13:50.428Z,532.00
2019-04-11T05:14:47.825Z,544.00
2019-04-11T05:15:47.390Z,552.00
2019-04-11T05:16:48.210Z,564.00
2019-04-11T05:17:47.389Z,572.00
2019-04-11T05:18:48.376Z,580.00
2019-04-11T05:19:47.356Z,592.00
2019-04-11T05:20:48.274Z,604.00
2019-04-11T05:21:47.832Z,612.00
2019-04-11T05:22:47.327Z,620.00
2019-04-11T05:23:48.048Z,628.00
2019-04-11T05:24:47.546Z,636.00
2019-04-11T05:25:47.292Z,648.00
2019-04-11T05:26:48.135Z,656.00
2019-04-11T05:27:47.539Z,668.00
2019-04-11T05:28:47.251Z,676.00
2019-04-11T05:29:47.269Z,684.00
2019-04-11T05:30:47.256Z,692.00
2019-04-11T05:31:47.228Z,700.00
2019-04-11T05:32:47.301Z,704.00
2019-04-11T05:33:47.590Z,712.00
2019-04-11T05:34:47.191Z,720.00
2019-04-11T05:35:48.005Z,728.00
2019-04-11T05:36:47.278Z,736.00
2019-04-11T05:37:47.192Z,744.00
2019-04-11T05:38:47.135Z,752.00
2019-04-11T05:39:48.181Z,756.00
2019-04-11T05:40:48.235Z,764.00
2019-04-11T05:41:48.454Z,776.00
2019-04-11T05:42:50.980Z,784.00
2019-04-11T05:43:48.081Z,788.00
2019-04-11T05:44:48.273Z,792.00
2019-04-11T05:45:48.530Z,800.00
2019-04-11T05:46:55.829Z,804.00
2019-04-11T05:47:50.863Z,812.00
2019-04-11T05:48:48.033Z,820.00
2019-04-11T05:49:47.078Z,828.00
2019-04-11T05:50:50.475Z,828.00
2019-04-11T05:51:47.595Z,836.00
2019-04-11T05:52:47.017Z,844.00
2019-04-11T05:53:49.941Z,852.00
2019-04-11T05:54:49.087Z,860.00
2019-04-11T05:55:47.556Z,864.00
2019-04-11T05:56:53.038Z,864.00
2019-04-11T05:57:47.963Z,872.00
2019-04-11T05:58:47.713Z,876.00
2019-04-11T05:59:49.937Z,880.00
2019-04-11T06:00:48.911Z,888.00
2019-04-11T06:01:46.885Z,892.00
2019-04-11T06:02:46.885Z,896.00
2019-04-11T06:03:49.194Z,900.00
2019-04-11T06:04:50.112Z,904.00
2019-04-11T06:05:47.849Z,912.00
2019-04-11T06:06:46.843Z,912.00
2019-04-11T06:07:48.972Z,912.00
2019-04-11T06:08:48.151Z,920.00
2019-04-11T06:09:46.807Z,928.00
2019-04-11T06:10:46.806Z,932.00
2019-04-11T06:11:50.357Z,940.00
2019-04-11T06:12:47.775Z,956.00
2019-04-11T06:13:46.878Z,956.00
2019-04-11T06:14:47.190Z,972.00
2019-04-11T06:15:47.210Z,976.00
2019-04-11T06:16:50.903Z,984.00
2019-04-11T06:17:48.202Z,992.00
2019-04-11T06:18:46.698Z,992.00
2019-04-11T06:19:47.920Z,1020.00
2019-04-11T06:20:47.216Z,1028.00
2019-04-11T06:21:46.669Z,992.00
2019-04-11T06:22:47.664Z,988.00
2019-04-11T06:23:47.774Z,988.00
2019-04-11T06:24:46.656Z,992.00
2019-04-11T06:25:47.181Z,996.00
2019-04-11T06:26:47.060Z,1004.00
2019-04-11T06:27:47.402Z,1012.00
2019-04-11T06:28:47.330Z,1020.00
2019-04-11T06:29:47.324Z,1016.00
2019-04-11T06:30:46.589Z,1024.00
2019-04-11T06:31:47.510Z,1020.00
2019-04-11T06:32:47.801Z,1032.00
2019-04-11T06:33:46.988Z,1036.00
2019-04-11T06:34:46.988Z,1040.00
2019-04-11T06:35:46.541Z,1048.00
2019-04-11T06:36:48.098Z,1048.00
2019-04-11T06:37:46.708Z,1052.00
2019-04-11T06:38:47.130Z,1064.00
2019-04-11T06:39:47.351Z,1068.00
2019-04-11T06:40:46.469Z,1072.00
2019-04-11T06:41:46.588Z,1080.00
2019-04-11T06:42:47.580Z,1084.00
2019-04-11T06:43:46.431Z,1080.00
2019-04-11T06:44:46.429Z,1088.00
2019-04-11T06:45:46.414Z,1088.00
2019-04-11T06:46:53.838Z,1096.00
2019-04-11T06:47:47.482Z,1092.00
2019-04-11T06:48:47.673Z,1100.00
2019-04-11T06:49:46.745Z,1096.00
2019-04-11T06:50:47.174Z,1100.00
2019-04-11T06:51:46.390Z,1108.00
2019-04-11T06:52:46.353Z,1112.00
2019-04-11T06:53:46.331Z,1116.00
2019-04-11T06:54:47.396Z,1128.00
2019-04-11T06:55:46.802Z,1128.00
2019-04-11T06:56:47.479Z,1128.00
2019-04-11T06:57:46.269Z,1136.00
2019-04-11T06:58:46.277Z,1136.00
2019-04-11T06:59:46.254Z,1140.00
2019-04-11T07:00:47.442Z,1140.00
2019-04-11T07:01:47.498Z,1144.00
2019-04-11T07:02:46.609Z,1148.00
2019-04-11T07:03:46.928Z,1124.00
2019-04-11T07:04:46.394Z,1156.00
2019-04-11T07:05:46.857Z,1164.00
2019-04-11T07:06:46.184Z,1172.00
2019-04-11T07:07:46.215Z,1176.00
2019-04-11T07:08:46.920Z,1184.00
2019-04-11T07:09:47.026Z,1184.00
2019-04-11T07:10:46.752Z,1188.00
2019-04-11T07:11:46.138Z,1188.00
2019-04-11T07:12:47.130Z,1196.00
2019-04-11T07:13:46.103Z,1196.00
2019-04-11T07:14:46.128Z,1204.00
2019-04-11T07:15:46.454Z,1208.00
2019-04-11T07:16:46.830Z,1212.00
2019-04-11T07:17:46.063Z,1212.00
2019-04-11T07:18:46.477Z,1220.00
2019-04-11T07:19:46.067Z,1224.00
2019-04-11T07:20:46.033Z,1228.00
2019-04-11T07:21:46.199Z,1236.00
2019-04-11T07:22:46.643Z,1228.00
2019-04-11T07:23:47.042Z,1232.00
2019-04-11T07:24:46.008Z,1244.00
2019-04-11T07:25:47.127Z,1248.00
2019-04-11T07:26:45.970Z,1252.00
2019-04-11T07:27:45.961Z,1260.00
2019-04-11T07:28:45.943Z,1264.00
2019-04-11T07:29:46.469Z,1280.00
2019-04-11T07:30:45.951Z,1292.00
2019-04-11T07:31:46.226Z,1280.00
2019-04-11T07:32:47.609Z,1288.00
2019-04-11T07:33:46.001Z,1296.00
2019-04-11T07:34:45.919Z,1300.00
2019-04-11T07:35:47.644Z,1300.00
2019-04-11T07:36:46.207Z,1304.00
2019-04-11T07:37:47.498Z,1308.00
2019-04-11T07:38:48.707Z,1308.00
2019-04-11T07:39:47.185Z,1300.00
2019-04-11T07:40:45.840Z,1312.00
2019-04-11T07:41:45.911Z,1324.00
2019-04-11T07:42:46.840Z,1336.00
2019-04-11T07:43:45.791Z,1352.00
2019-04-11T07:44:45.792Z,1352.00
2019-04-11T07:45:47.025Z,1360.00
2019-04-11T07:46:45.752Z,1396.00
2019-04-11T07:47:46.139Z,1392.00
2019-04-11T07:48:46.795Z,1400.00
2019-04-11T07:49:45.751Z,1392.00
2019-04-11T07:50:46.532Z,1408.00
2019-04-11T07:51:45.720Z,1428.00
2019-04-11T07:52:46.862Z,1460.00
2019-04-11T07:53:45.972Z,1472.00
2019-04-11T07:54:45.732Z,1488.00
2019-04-11T07:55:46.612Z,1576.00
2019-04-11T07:56:46.362Z,1920.00
2019-04-11T07:57:46.796Z,1720.00
2019-04-11T07:58:45.808Z,1676.00
2019-04-11T07:59:46.735Z,1796.00
2019-04-11T08:00:49.017Z,1836.00
2019-04-11T08:01:46.946Z,1896.00
2019-04-11T08:02:45.736Z,1952.00
2019-04-11T08:03:46.870Z,2044.00
2019-04-11T08:04:45.567Z,2088.00
2019-04-11T08:05:46.604Z,2256.00
2019-04-11T08:06:45.699Z,2396.00
2019-04-11T08:07:46.685Z,2564.00
2019-04-11T08:08:45.523Z,2644.00
2019-04-11T08:09:45.520Z,2928.00
2019-04-11T08:10:45.775Z,3164.00
2019-04-11T08:11:45.489Z,3456.00
2019-04-11T08:12:45.809Z,3532.00
2019-04-11T08:13:45.490Z,3588.00
2019-04-11T08:14:45.617Z,4256.00
2019-04-11T08:15:46.051Z,4200.00
2019-04-11T08:16:45.438Z,4152.00
2019-04-11T08:17:46.007Z,4068.00
2019-04-11T08:18:45.452Z,4124.00
2019-04-11T08:19:45.418Z,4284.00
2019-04-11T08:20:45.694Z,4244.00
2019-04-11T08:21:46.135Z,4224.00
2019-04-11T08:22:45.597Z,4348.00
2019-04-11T08:23:45.732Z,4236.00
2019-04-11T08:24:45.389Z,4080.00
2019-04-11T08:25:45.344Z,4072.00
2019-04-11T08:26:46.374Z,4008.00
2019-04-11T08:27:54.897Z,4080.00
2019-04-11T08:28:47.698Z,4192.00
2019-04-11T08:29:48.851Z,4080.00
2019-04-11T08:30:45.309Z,4024.00
2019-04-11T08:31:46.441Z,4020.00
2019-04-11T08:32:46.432Z,4120.00
2019-04-11T08:33:45.258Z,4348.00
2019-04-11T08:34:45.869Z,4532.00
2019-04-11T08:35:45.257Z,4616.00
2019-04-11T08:36:47.202Z,4720.00
2019-04-11T08:37:45.531Z,4980.00
2019-04-11T08:38:45.200Z,5040.00
2019-04-11T08:39:45.202Z,4772.00
2019-04-11T08:40:45.285Z,4640.00
2019-04-11T08:41:45.168Z,4640.00
2019-04-11T08:42:45.165Z,4640.00
2019-04-11T08:43:45.541Z,4604.00
2019-04-11T08:44:45.157Z,4532.00
2019-04-11T08:45:45.124Z,4416.00
2019-04-11T08:46:45.133Z,4336.00
2019-04-11T08:47:51.269Z,4020.00
2019-04-11T08:48:46.102Z,3692.00
2019-04-11T08:49:45.979Z,3448.00
2019-04-11T08:50:45.089Z,3408.00
2019-04-11T08:51:45.271Z,3444.00
2019-04-11T08:52:45.064Z,3548.00
2019-04-11T08:53:45.045Z,3752.00
2019-04-11T08:54:45.927Z,3528.00
2019-04-11T08:55:51.991Z,3124.00
2019-04-11T08:56:47.302Z,2628.00
2019-04-11T08:57:44.997Z,2176.00
2019-04-11T08:58:44.994Z,2328.00
2019-04-11T08:59:46.109Z,2568.00
2019-04-11T09:00:44.965Z,2792.00
2019-04-11T09:01:46.004Z,2980.00
2019-04-11T09:02:45.083Z,3392.00
2019-04-11T09:03:56.626Z,3924.00
2019-04-11T09:04:46.296Z,3592.00
2019-04-11T09:05:44.922Z,3272.00
2019-04-11T09:06:45.110Z,3536.00
2019-04-11T09:07:45.739Z,4428.00
2019-04-11T09:08:44.895Z,4928.00
2019-04-11T09:09:45.550Z,4996.00
2019-04-11T09:10:44.864Z,5472.00
2019-04-11T09:11:44.938Z,5628.00
2019-04-11T09:12:44.901Z,5796.00
2019-04-11T09:13:44.834Z,6196.00
2019-04-11T09:14:44.835Z,6664.00
2019-04-11T09:15:45.390Z,6328.00
2019-04-11T09:16:45.812Z,5308.00
2019-04-11T09:17:57.496Z,4572.00
2019-04-11T09:18:46.117Z,4504.00
2019-04-11T09:19:45.269Z,4516.00
2019-04-11T09:20:45.573Z,4364.00
2019-04-11T09:21:44.743Z,4304.00
2019-04-11T09:22:45.013Z,4776.00
2019-04-11T09:23:44.776Z,5244.00
2019-04-11T09:24:44.713Z,4856.00
2019-04-11T09:25:45.734Z,4380.00
2019-04-11T09:26:44.682Z,4204.00
2019-04-11T09:27:44.825Z,3936.00
2019-04-11T09:28:45.832Z,3460.00
2019-04-11T09:29:44.678Z,3088.00
2019-04-11T09:30:45.190Z,3244.00
2019-04-11T09:31:45.685Z,3652.00
2019-04-11T09:32:44.627Z,3568.00
2019-04-11T09:33:44.907Z,3752.00
2019-04-11T09:34:44.626Z,3680.00
2019-04-11T09:35:44.589Z,3660.00
2019-04-11T09:36:45.162Z,4164.00
2019-04-11T09:37:44.675Z,4196.00
2019-04-11T09:38:44.564Z,4416.00
2019-04-11T09:39:45.565Z,4960.00
2019-04-11T09:40:44.692Z,5168.00
2019-04-11T09:41:44.833Z,4948.00
2019-04-11T09:42:45.004Z,5040.00
2019-04-11T09:43:44.516Z,5192.00
2019-04-11T09:44:44.796Z,5268.00
2019-04-11T09:45:44.522Z,5548.00
2019-04-11T09:46:44.469Z,5940.00
2019-04-11T09:47:45.551Z,6292.00
2019-04-11T09:48:44.552Z,6360.00
2019-04-11T09:49:45.039Z,6328.00
2019-04-11T09:50:44.757Z,6324.00
2019-04-11T09:51:44.436Z,6216.00
2019-04-11T09:52:45.303Z,6488.00
2019-04-11T09:53:45.072Z,6772.00
2019-04-11T09:54:44.383Z,6936.00
2019-04-11T09:55:44.360Z,7180.00
2019-04-11T09:56:45.102Z,7128.00
2019-04-11T09:57:44.363Z,6744.00
2019-04-11T09:58:44.327Z,5984.00
2019-04-11T09:59:45.474Z,5144.00
2019-04-11T10:00:45.215Z,4616.00
2019-04-11T10:01:45.185Z,4308.00
2019-04-11T10:02:44.292Z,4316.00
2019-04-11T10:03:45.099Z,4708.00
2019-04-11T10:04:44.270Z,5040.00
2019-04-11T10:05:44.821Z,4788.00
2019-04-11T10:06:44.572Z,4380.00
2019-04-11T10:07:44.288Z,4372.00
2019-04-11T10:08:44.221Z,4788.00
2019-04-11T10:09:44.275Z,5912.00
2019-04-11T10:10:46.207Z,6848.00
2019-04-11T10:11:44.199Z,7204.00
2019-04-11T10:12:44.648Z,7728.00
2019-04-11T10:13:44.957Z,8092.00
2019-04-11T10:14:44.175Z,8024.00
2019-04-11T10:15:45.184Z,7992.00
2019-04-11T10:16:44.363Z,8168.00
2019-04-11T10:17:44.163Z,8268.00
2019-04-11T10:18:44.388Z,7868.00
2019-04-11T10:19:44.414Z,6992.00
2019-04-11T10:20:44.627Z,6260.00
2019-04-11T10:21:44.080Z,6052.00
2019-04-11T10:22:44.109Z,6376.00
2019-04-11T10:23:45.133Z,6656.00
2019-04-11T10:24:44.050Z,7204.00
2019-04-11T10:25:45.422Z,7584.00
2019-04-11T10:26:44.494Z,7796.00
2019-04-11T10:27:44.767Z,7964.00
2019-04-11T10:28:44.036Z,8232.00
2019-04-11T10:29:44.150Z,8364.00
2019-04-11T10:30:44.203Z,8356.00
2019-04-11T10:31:44.358Z,8336.00
2019-04-11T10:32:43.959Z,8444.00
2019-04-11T10:33:44.887Z,8584.00
2019-04-11T10:34:43.970Z,8616.00
2019-04-11T10:35:43.940Z,8632.00
2019-04-11T10:36:43.920Z,8652.00
2019-04-11T10:37:44.267Z,8568.00
2019-04-11T10:38:44.734Z,8460.00
2019-04-11T10:39:43.926Z,8456.00
2019-04-11T10:40:44.171Z,8540.00
2019-04-11T10:41:44.166Z,8568.00
2019-04-11T10:42:44.463Z,8508.00
2019-04-11T10:43:44.698Z,8512.00
2019-04-11T10:44:43.862Z,8392.00
2019-04-11T10:45:44.837Z,8076.00
2019-04-11T10:46:43.950Z,7740.00
2019-04-11T10:47:44.952Z,7792.00
2019-04-11T10:48:45.313Z,7944.00
2019-04-11T10:49:44.182Z,8048.00
2019-04-11T10:50:44.478Z,8016.00
2019-04-11T10:51:43.758Z,7796.00
2019-04-11T10:52:44.646Z,7568.00
2019-04-11T10:53:43.843Z,7468.00
2019-04-11T10:54:44.981Z,7468.00
2019-04-11T10:55:44.119Z,7548.00
2019-04-11T10:56:43.719Z,7636.00
2019-04-11T10:57:44.603Z,7860.00
2019-04-11T10:58:44.775Z,8136.00
2019-04-11T10:59:44.819Z,8348.00
2019-04-11T11:00:43.714Z,8516.00
2019-04-11T11:01:44.352Z,8608.00
2019-04-11T11:02:43.642Z,8764.00
2019-04-11T11:03:43.637Z,8792.00
2019-04-11T11:04:43.611Z,8644.00
2019-04-11T11:05:43.602Z,8608.00
2019-04-11T11:06:44.955Z,8700.00
2019-04-11T11:07:44.593Z,8872.00
2019-04-11T11:08:43.800Z,9156.00
2019-04-11T11:09:44.325Z,9372.00
2019-04-11T11:10:43.879Z,9384.00
2019-04-11T11:11:44.205Z,9304.00
2019-04-11T11:12:43.615Z,9108.00
2019-04-11T11:13:43.521Z,8752.00
2019-04-11T11:14:43.513Z,7748.00
2019-04-11T11:15:44.013Z,6352.00
2019-04-11T11:16:45.465Z,5172.00
2019-04-11T11:18:11.459Z,4756.00
2019-04-11T11:19:15.578Z,4516.00
2019-04-11T11:19:57.452Z,4756.00
2019-04-11T11:20:50.107Z,4996.00
2019-04-11T11:21:45.106Z,5200.00
2019-04-11T11:22:44.438Z,5272.00
2019-04-11T11:23:43.417Z,5268.00
2019-04-11T11:24:44.209Z,5312.00
2019-04-11T11:25:48.142Z,5060.00
2019-04-11T11:26:44.383Z,4972.00
2019-04-11T11:27:43.724Z,4684.00
2019-04-11T11:28:43.354Z,4384.00
2019-04-11T11:29:43.348Z,4240.00
2019-04-11T11:30:43.331Z,4292.00
2019-04-11T11:31:44.816Z,4408.00
2019-04-11T11:32:43.357Z,4256.00
2019-04-11T11:33:44.616Z,4068.00
2019-04-11T11:34:44.437Z,3744.00
2019-04-11T11:35:43.540Z,3236.00
2019-04-11T11:36:43.776Z,2776.00
2019-04-11T11:37:43.276Z,2744.00
2019-04-11T11:38:43.995Z,2800.00
2019-04-11T11:39:43.691Z,2640.00
2019-04-11T11:40:44.729Z,2332.00
2019-04-11T11:41:43.213Z,2068.00
2019-04-11T11:42:44.122Z,1820.00
2019-04-11T11:43:43.354Z,1676.00
2019-04-11T11:44:43.208Z,1748.00
2019-04-11T11:45:46.858Z,2116.00
2019-04-11T11:46:44.641Z,2544.00
2019-04-11T11:47:43.273Z,2864.00
2019-04-11T11:48:46.345Z,3028.00
2019-04-11T11:49:53.401Z,2952.00
2019-04-11T11:50:44.713Z,2824.00
2019-04-11T11:51:43.628Z,2596.00
2019-04-11T11:52:43.985Z,2328.00
2019-04-11T11:53:43.090Z,2344.00
2019-04-11T11:54:43.976Z,2428.00
2019-04-11T11:55:43.226Z,2548.00
2019-04-11T11:56:44.361Z,2732.00
2019-04-11T11:57:43.058Z,3112.00
2019-04-11T11:58:45.157Z,3380.00
2019-04-11T11:59:43.023Z,3496.00
2019-04-11T12:00:43.803Z,3568.00
2019-04-11T12:01:46.436Z,3752.00
2019-04-11T12:02:44.357Z,3924.00
2019-04-11T12:03:42.987Z,4136.00
2019-04-11T12:04:44.250Z,4328.00
2019-04-11T12:05:47.112Z,4340.00
2019-04-11T12:06:44.025Z,4384.00
2019-04-11T12:07:43.143Z,4436.00
2019-04-11T12:08:46.593Z,4556.00
2019-04-11T12:09:44.710Z,4788.00
2019-04-11T12:10:43.823Z,5004.00
2019-04-11T12:11:43.054Z,5196.00
2019-04-11T12:12:43.954Z,5272.00
2019-04-11T12:13:43.284Z,5056.00
2019-04-11T12:14:44.967Z,4756.00
2019-04-11T12:15:43.509Z,4712.00
2019-04-11T12:16:43.830Z,4612.00
2019-04-11T12:17:42.904Z,5068.00
2019-04-11T12:18:47.167Z,5836.00
2019-04-11T12:19:52.304Z,6472.00
2019-04-11T12:20:46.075Z,6776.00
2019-04-11T12:21:43.815Z,6732.00
2019-04-11T12:22:42.779Z,6704.00
2019-04-11T12:23:53.911Z,6820.00
2019-04-11T12:24:44.913Z,6876.00
2019-04-11T12:25:42.744Z,7112.00
2019-04-11T12:26:44.702Z,7244.00
2019-04-11T12:27:43.722Z,7256.00
2019-04-11T12:28:43.659Z,7124.00
2019-04-11T12:29:47.850Z,6916.00
2019-04-11T12:30:44.103Z,6916.00
2019-04-11T12:31:43.908Z,7136.00
2019-04-11T12:32:42.711Z,7396.00
2019-04-11T12:33:43.729Z,7632.00
2019-04-11T12:34:44.989Z,7772.00
2019-04-11T12:35:42.627Z,7748.00